createdAt,value
2022-09-11T00:00:22.849Z,999.81
2022-09-11T00:05:22.783Z,999.77
2022-09-11T00:10:22.735Z,999.76
2022-09-11T00:15:22.669Z,999.80
2022-09-11T00:20:22.623Z,999.80
2022-09-11T00:25:22.581Z,999.87
2022-09-11T00:30:22.543Z,999.83
2022-09-11T00:35:22.459Z,999.86
2022-09-11T00:40:22.411Z,999.96
2022-09-11T00:45:22.329Z,999.97
2022-09-11T00:50:22.288Z,999.97
2022-09-11T00:55:22.234Z,999.98
2022-09-11T01:00:22.162Z,1000.00
2022-09-11T01:05:22.150Z,1000.12
2022-09-11T01:10:22.087Z,1000.11
2022-09-11T01:15:22.007Z,1000.12
2022-09-11T01:20:21.944Z,1000.17
2022-09-11T01:25:21.917Z,1000.18
2022-09-11T01:30:21.845Z,1000.20
2022-09-11T01:35:21.799Z,1000.27
2022-09-11T01:40:21.745Z,1000.33
2022-09-11T01:45:21.718Z,1000.34
2022-09-11T01:50:21.630Z,1000.45
2022-09-11T01:55:21.566Z,1000.48
2022-09-11T02:00:21.523Z,1000.51
2022-09-11T02:05:21.481Z,1000.54
2022-09-11T02:10:21.398Z,1000.57
2022-09-11T02:15:21.336Z,1000.60
2022-09-11T02:20:21.307Z,1000.59
2022-09-11T02:25:21.235Z,1000.59
2022-09-11T02:30:21.188Z,1000.55
2022-09-11T02:35:21.127Z,1000.55
2022-09-11T02:40:21.088Z,1000.58
2022-09-11T02:45:21.063Z,1000.61
2022-09-11T02:50:20.985Z,1000.61
2022-09-11T02:55:20.935Z,1000.61
2022-09-11T03:00:20.856Z,1000.68
2022-09-11T03:05:20.804Z,1000.64
2022-09-11T03:10:20.766Z,1000.64
2022-09-11T03:15:20.686Z,1000.67
2022-09-11T03:20:20.637Z,1000.68
2022-09-11T03:25:20.584Z,1000.74
2022-09-11T03:30:20.495Z,1000.82
2022-09-11T03:35:20.471Z,1000.79
2022-09-11T03:40:20.436Z,1000.81
2022-09-11T03:45:20.354Z,1000.95
2022-09-11T03:50:20.314Z,1000.92
2022-09-11T03:55:20.245Z,1001.00
2022-09-11T04:00:20.193Z,1001.00
2022-09-11T04:05:20.159Z,1001.04
2022-09-11T04:10:20.105Z,1001.11
2022-09-11T04:15:20.031Z,1001.16
2022-09-11T04:20:19.975Z,1001.18
2022-09-11T04:25:19.945Z,1001.17
2022-09-11T04:30:19.861Z,1001.17
2022-09-11T04:35:19.826Z,1001.15
2022-09-11T04:40:28.620Z,1001.17
2022-09-11T04:45:19.708Z,1001.17
2022-09-11T04:50:19.668Z,1001.20
2022-09-11T04:55:19.618Z,1001.23
2022-09-11T05:00:19.577Z,1001.25
2022-09-11T05:05:19.538Z,1001.31
2022-09-11T05:10:19.558Z,1001.35
2022-09-11T05:15:19.490Z,1001.39
2022-09-11T05:20:19.450Z,1001.45
2022-09-11T05:25:19.366Z,1001.52
2022-09-11T05:30:19.318Z,1001.54
2022-09-11T05:35:19.246Z,1001.59
2022-09-11T05:40:19.115Z,1001.57
2022-09-11T05:45:19.087Z,1001.70
2022-09-11T05:50:19.007Z,1001.79
2022-09-11T05:55:18.986Z,1001.83
2022-09-11T06:00:18.920Z,1001.87
2022-09-11T06:05:18.899Z,1001.90
2022-09-11T06:10:18.822Z,1001.92
2022-09-11T06:15:42.943Z,1001.96
2022-09-11T06:20:19.731Z,1002.02
2022-09-11T06:25:18.711Z,1002.07
2022-09-11T06:30:18.576Z,1002.10
2022-09-11T06:35:18.543Z,1002.13
2022-09-11T06:40:18.667Z,1002.14
2022-09-11T06:45:18.394Z,1002.17
2022-09-11T06:50:18.349Z,1002.13
2022-09-11T06:55:18.287Z,1002.07
2022-09-11T07:00:18.224Z,1002.14
2022-09-11T07:05:18.291Z,1002.23
2022-09-11T07:10:18.225Z,1002.18
2022-09-11T07:15:18.146Z,1002.21
2022-09-11T07:20:18.021Z,1002.22
2022-09-11T07:25:26.830Z,1002.24
2022-09-11T07:30:17.918Z,1002.27
2022-09-11T07:35:17.930Z,1002.33
2022-09-11T07:40:17.917Z,1002.39
2022-09-11T07:45:22.502Z,1002.46
2022-09-11T07:50:17.681Z,1002.46
2022-09-11T07:55:17.617Z,1002.48
2022-09-11T08:00:17.567Z,1002.46
2022-09-11T08:05:17.563Z,1002.57
2022-09-11T08:10:27.095Z,1002.55
2022-09-11T08:15:18.467Z,1002.65
2022-09-11T08:20:17.492Z,1002.71
2022-09-11T08:25:17.321Z,1002.74
2022-09-11T08:30:17.397Z,1002.75
2022-09-11T08:35:17.204Z,1002.78
2022-09-11T08:40:17.189Z,1002.80
2022-09-11T08:45:17.454Z,1002.95
2022-09-11T08:50:17.157Z,1002.92
2022-09-11T08:55:17.142Z,1002.93
2022-09-11T09:00:17.095Z,1003.01
2022-09-11T09:05:17.038Z,1002.94
2022-09-11T09:10:18.032Z,1003.10
2022-09-11T09:15:16.800Z,1003.10
2022-09-11T09:20:16.732Z,1003.09
2022-09-11T09:25:16.670Z,1003.03
2022-09-11T09:30:16.712Z,1003.08
2022-09-11T09:35:16.578Z,1003.09
2022-09-11T09:40:16.515Z,1003.10
2022-09-11T09:45:17.762Z,1003.12
2022-09-11T09:50:16.410Z,1003.13
2022-09-11T09:55:16.288Z,1003.25
2022-09-11T10:00:16.331Z,1003.29
2022-09-11T10:05:16.239Z,1003.30
2022-09-11T10:10:16.198Z,1003.16
2022-09-11T10:15:16.070Z,1003.22
2022-09-11T10:20:16.201Z,1003.03
2022-09-11T10:25:16.063Z,1003.04
2022-09-11T10:30:15.976Z,1003.05
2022-09-11T10:35:15.845Z,1003.10
2022-09-11T10:40:16.507Z,1003.14
2022-09-11T10:45:17.025Z,1003.23
2022-09-11T10:50:16.766Z,1003.16
2022-09-11T10:55:16.421Z,1003.19
2022-09-11T11:00:17.196Z,1003.03
2022-09-11T11:05:17.611Z,1003.06
2022-09-11T11:10:16.676Z,1003.08
2022-09-11T11:15:16.837Z,1002.87
2022-09-11T11:20:17.046Z,1002.88
2022-09-11T11:25:15.692Z,1002.96
2022-09-11T11:30:18.820Z,1002.98
2022-09-11T11:35:17.167Z,1002.98
2022-09-11T11:40:20.747Z,1003.00
2022-09-11T11:45:18.024Z,1003.00
2022-09-11T11:50:15.520Z,1003.06
2022-09-11T11:55:15.873Z,1003.14
2022-09-11T12:00:16.668Z,1002.93
2022-09-11T12:05:16.259Z,1002.90
2022-09-11T12:10:17.080Z,1002.95
2022-09-11T12:15:15.816Z,1003.04
2022-09-11T12:20:15.340Z,1003.06
2022-09-11T12:25:17.823Z,1003.16
2022-09-11T12:30:19.537Z,1003.06
2022-09-11T12:35:16.366Z,1002.92
2022-09-11T12:40:17.130Z,1002.90
2022-09-11T12:45:15.897Z,1002.81
2022-09-11T12:50:14.489Z,1002.86
2022-09-11T12:55:14.533Z,1002.89
2022-09-11T13:00:14.669Z,1002.92
2022-09-11T13:05:14.380Z,1003.00
2022-09-11T13:10:14.280Z,1002.83
2022-09-11T13:15:14.249Z,1002.90
2022-09-11T13:20:14.244Z,1002.69
2022-09-11T13:25:14.973Z,1002.60
2022-09-11T13:30:14.148Z,1002.68
2022-09-11T13:35:14.265Z,1002.71
2022-09-11T13:40:14.001Z,1002.50
2022-09-11T13:45:13.877Z,1002.54
2022-09-11T13:50:13.909Z,1002.60
2022-09-11T13:55:13.899Z,1002.58
2022-09-11T14:00:14.888Z,1002.38
2022-09-11T14:05:13.702Z,1002.32
2022-09-11T14:10:13.658Z,1002.27
2022-09-11T14:15:13.590Z,1002.35
2022-09-11T14:20:13.573Z,1002.26
2022-09-11T14:25:15.592Z,1002.22
2022-09-11T14:30:13.752Z,1002.22
2022-09-11T14:35:17.080Z,1002.28
2022-09-11T14:40:13.465Z,1002.23
2022-09-11T14:45:13.429Z,1002.24
2022-09-11T14:50:13.245Z,1002.16
2022-09-11T14:55:13.242Z,1002.08
2022-09-11T15:00:13.173Z,1002.08
2022-09-11T15:05:13.038Z,1002.12
2022-09-11T15:10:13.025Z,1002.11
2022-09-11T15:15:13.079Z,1002.08
2022-09-11T15:20:12.993Z,1002.01
2022-09-11T15:25:12.983Z,1001.91
2022-09-11T15:30:12.865Z,1001.79
2022-09-11T15:35:12.777Z,1001.71
2022-09-11T15:40:16.557Z,1001.73
2022-09-11T15:45:12.629Z,1001.78
2022-09-11T15:50:12.540Z,1001.82
2022-09-11T15:55:12.657Z,1001.75
2022-09-11T16:00:12.544Z,1001.70
2022-09-11T16:05:12.401Z,1001.64
2022-09-11T16:10:12.378Z,1001.71
2022-09-11T16:15:12.283Z,1001.70
2022-09-11T16:20:12.158Z,1001.72
2022-09-11T16:25:12.180Z,1001.81
2022-09-11T16:30:42.875Z,1001.79
2022-09-11T16:35:13.157Z,1001.69
2022-09-11T16:40:12.062Z,1001.71
2022-09-11T16:45:12.081Z,1001.71
2022-09-11T16:50:11.943Z,1001.68
2022-09-11T16:55:11.830Z,1001.66
2022-09-11T17:00:11.727Z,1001.66
2022-09-11T17:05:11.702Z,1001.55
2022-09-11T17:10:11.618Z,1001.63
2022-09-11T17:15:11.568Z,1001.68
2022-09-11T17:20:11.520Z,1001.62
2022-09-11T17:25:11.555Z,1001.56
2022-09-11T17:30:11.497Z,1001.60
2022-09-11T17:35:11.487Z,1001.62
2022-09-11T17:40:12.478Z,1001.60
2022-09-11T17:45:11.998Z,1001.63
2022-09-11T17:50:11.316Z,1001.63
2022-09-11T17:55:11.570Z,1001.70
2022-09-11T18:00:11.419Z,1001.73
2022-09-11T18:05:11.344Z,1001.76
2022-09-11T18:10:11.656Z,1001.79
2022-09-11T18:15:11.461Z,1001.80
2022-09-11T18:20:11.129Z,1001.87
2022-09-11T18:25:12.254Z,1001.87
2022-09-11T18:30:10.840Z,1001.92
2022-09-11T18:35:11.093Z,1001.97
2022-09-11T18:40:12.054Z,1001.88
2022-09-11T18:45:10.574Z,1001.87
2022-09-11T18:50:10.577Z,1001.91
2022-09-11T18:55:10.933Z,1001.87
2022-09-11T19:00:10.432Z,1001.78
2022-09-11T19:05:10.386Z,1001.79
2022-09-11T19:10:10.295Z,1001.80
2022-09-11T19:15:10.309Z,1001.83
2022-09-11T19:20:10.332Z,1001.86
2022-09-11T19:25:11.125Z,1001.91
2022-09-11T19:30:12.269Z,1001.92
2022-09-11T19:35:10.191Z,1001.95
2022-09-11T19:40:10.134Z,1001.94
2022-09-11T19:45:10.045Z,1001.98
2022-09-11T19:50:09.854Z,1001.92
2022-09-11T19:55:09.785Z,1001.90
2022-09-11T20:00:09.744Z,1001.99
2022-09-11T20:05:09.830Z,1001.96
2022-09-11T20:10:09.644Z,1002.08
2022-09-11T20:15:09.617Z,1002.11
2022-09-11T20:20:09.534Z,1002.04
2022-09-11T20:25:09.572Z,1002.03
2022-09-11T20:30:10.531Z,1002.00
2022-09-11T20:35:09.903Z,1001.99
2022-09-11T20:40:09.367Z,1002.02
2022-09-11T20:45:09.283Z,1001.91
2022-09-11T20:50:09.230Z,1001.88
2022-09-11T20:55:09.170Z,1001.89
2022-09-11T21:00:09.065Z,1001.86
2022-09-11T21:05:09.045Z,1001.93
2022-09-11T21:10:08.971Z,1001.88
2022-09-11T21:15:09.023Z,1001.86
2022-09-11T21:20:08.905Z,1001.84
2022-09-11T21:25:08.832Z,1001.79
2022-09-11T21:30:08.743Z,1001.72
2022-09-11T21:35:08.729Z,1001.78
2022-09-11T21:40:08.703Z,1001.77
2022-09-11T21:45:08.616Z,1001.67
2022-09-11T21:50:08.523Z,1001.65
2022-09-11T21:55:08.552Z,1001.63
2022-09-11T22:00:08.461Z,1001.64
2022-09-11T22:05:10.358Z,1001.69
2022-09-11T22:10:08.382Z,1001.71
2022-09-11T22:15:08.277Z,1001.68
2022-09-11T22:20:08.176Z,1001.69
2022-09-11T22:25:08.114Z,1001.66
2022-09-11T22:30:08.059Z,1001.65
2022-09-11T22:35:08.020Z,1001.65
2022-09-11T22:40:08.113Z,1001.66
2022-09-11T22:45:07.929Z,1001.67
2022-09-11T22:50:07.896Z,1001.60
2022-09-11T22:55:07.812Z,1001.64
2022-09-11T23:00:07.772Z,1001.61
2022-09-11T23:05:07.706Z,1001.56
2022-09-11T23:10:07.614Z,1001.57
2022-09-11T23:15:07.566Z,1001.53
2022-09-11T23:20:07.499Z,1001.48
2022-09-11T23:25:07.423Z,1001.52
2022-09-11T23:30:07.365Z,1001.46
2022-09-11T23:35:07.406Z,1001.46
2022-09-11T23:40:07.409Z,1001.47
2022-09-11T23:45:07.261Z,1001.48
2022-09-11T23:50:07.226Z,1001.42
2022-09-11T23:55:07.141Z,1001.40
